Time;durP1;ratioP1;P1;durP2;ratioP2;P2;SDS_P1;SDS_P2;PMS_P1;PMS_P2;Temp;Humidity;BMP_temperature;BMP_pressure;BME280_temperature;BME280_humidity;BME280_pressure;Samples;Min_cycle;Max_cycle;Signal;HPM_P1;HPM_P2
2022/02/24 00:01:45;;;;;;;;;;;179.60;1433.60;;;;;;5054344;28;19996;-61
2022/02/24 00:04:11;;;;;;;;;;;179.60;1433.60;;;;;;5054165;28;20373;-62
2022/02/24 00:06:36;;;;;;;;;;;179.50;1433.60;;;;;;5054412;28;19911;-61
2022/02/24 00:09:02;;;;;;;;;;;179.40;1433.60;;;;;;5053638;28;20364;-61
2022/02/24 00:11:27;;;;;;;;;;;179.40;1433.60;;;;;;5053647;28;19905;-62
2022/02/24 00:13:53;;;;;;;;;;;179.40;1433.60;;;;;;5054211;28;20403;-61
2022/02/24 00:16:19;;;;;;;;;;;179.40;1433.60;;;;;;5054063;28;20365;-62
2022/02/24 00:18:44;;;;;;;;;;;179.40;1433.60;;;;;;5054100;28;19909;-62
2022/02/24 00:21:10;;;;;;;;;;;179.30;1433.60;;;;;;5054517;28;19913;-62
2022/02/24 00:23:38;;;;;;;;;;;179.20;1433.60;;;;;;5054222;28;19959;-61
2022/02/24 00:26:04;;;;;;;;;;;179.20;1459.20;;;;;;5053900;28;19912;-61
2022/02/24 00:28:29;;;;;;;;;;;179.20;1433.60;;;;;;5054137;28;19905;-62
2022/02/24 00:30:55;;;;;;;;;;;179.20;1459.20;;;;;;5054220;28;19911;-62
2022/02/24 00:33:20;;;;;;;;;;;179.20;1459.20;;;;;;5053835;28;19996;-62
2022/02/24 00:35:46;;;;;;;;;;;179.20;1459.20;;;;;;5054438;28;19904;-62
2022/02/24 00:38:11;;;;;;;;;;;179.20;1459.20;;;;;;5053424;28;19965;-62
2022/02/24 00:40:37;;;;;;;;;;;179.20;1459.20;;;;;;5035197;28;19913;-62
2022/02/24 00:43:02;;;;;;;;;;;154.50;1459.20;;;;;;5053935;28;20315;-62
2022/02/24 00:45:30;;;;;;;;;;;154.50;1459.20;;;;;;5056683;28;19909;-62
2022/02/24 00:47:55;;;;;;;;;;;154.50;1484.80;;;;;;5057750;28;19916;-62
2022/02/24 00:50:21;;;;;;;;;;;154.40;1484.80;;;;;;5040383;28;20342;-62
2022/02/24 00:52:46;;;;;;;;;;;154.50;1484.80;;;;;;5058096;28;19912;-62
2022/02/24 00:55:12;;;;;;;;;;;154.40;1484.80;;;;;;5057788;28;20346;-62
2022/02/24 00:57:37;;;;;;;;;;;154.50;1484.80;;;;;;5057725;28;19936;-62
2022/02/24 01:00:04;;;;;;;;;;;154.50;1484.80;;;;;;5057625;28;19971;-62
2022/02/24 01:02:30;;;;;;;;;;;154.40;1484.80;;;;;;5057466;28;20398;-62
2022/02/24 01:04:55;;;;;;;;;;;154.50;1484.80;;;;;;5039503;28;20004;-62
2022/02/24 01:07:21;;;;;;;;;;;154.50;1484.80;;;;;;5039677;28;20339;-60
2022/02/24 01:09:46;;;;;;;;;;;154.50;1484.80;;;;;;5057640;28;20239;-60
2022/02/24 01:12:12;;;;;;;;;;;154.40;1484.80;;;;;;5057560;28;19905;-61
2022/02/24 01:14:37;;;;;;;;;;;154.40;1484.80;;;;;;5057848;28;19951;-60
2022/02/24 01:17:03;;;;;;;;;;;154.40;1459.20;;;;;;5057161;28;20409;-61
2022/02/24 01:19:29;;;;;;;;;;;154.40;1484.80;;;;;;5057238;28;19950;-60
2022/02/24 01:21:55;;;;;;;;;;;154.40;1484.80;;;;;;5057201;28;19909;-61
2022/02/24 01:24:20;;;;;;;;;;;154.30;1459.20;;;;;;5057182;28;19912;-60
2022/02/24 01:26:46;;;;;;;;;;;154.40;1484.80;;;;;;5057179;28;19911;-61
2022/02/24 01:29:11;;;;;;;;;;;154.30;1484.80;;;;;;5057207;28;19912;-60
2022/02/24 01:31:37;;;;;;;;;;;154.30;1484.80;;;;;;5056937;28;19931;-61
2022/02/24 01:34:03;;;;;;;;;;;154.20;1484.80;;;;;;5039088;28;20016;-61
2022/02/24 01:36:29;;;;;;;;;;;154.20;1484.80;;;;;;5057071;28;20035;-61
2022/02/24 01:38:55;;;;;;;;;;;154.20;1484.80;;;;;;5057007;28;19909;-60
2022/02/24 01:41:20;;;;;;;;;;;154.20;1484.80;;;;;;5056614;28;19920;-61
2022/02/24 01:43:47;;;;;;;;;;;154.20;1484.80;;;;;;5056887;28;19948;-61
2022/02/24 01:46:13;;;;;;;;;;;154.20;1484.80;;;;;;5056750;28;19911;-61
2022/02/24 01:48:38;;;;;;;;;;;154.20;1510.40;;;;;;5038861;28;19905;-61
2022/02/24 01:51:04;;;;;;;;;;;154.10;1484.80;;;;;;5056679;28;19908;-60
2022/02/24 01:53:30;;;;;;;;;;;154.20;1510.40;;;;;;5056986;28;19911;-60
2022/02/24 01:55:56;;;;;;;;;;;154.20;1484.80;;;;;;5056443;28;19968;-60
2022/02/24 01:58:22;;;;;;;;;;;154.20;1484.80;;;;;;5056904;28;19904;-61
2022/02/24 02:00:48;;;;;;;;;;;154.30;1484.80;;;;;;5056512;28;19912;-60
2022/02/24 02:03:14;;;;;;;;;;;154.20;1484.80;;;;;;5057037;28;19991;-61
2022/02/24 02:05:39;;;;;;;;;;;154.20;1484.80;;;;;;5056429;28;19941;-61
2022/02/24 02:08:05;;;;;;;;;;;154.30;1484.80;;;;;;5055931;28;19912;-61
2022/02/24 02:10:31;;;;;;;;;;;154.20;1484.80;;;;;;5056793;28;19905;-60
2022/02/24 02:12:56;;;;;;;;;;;154.20;1484.80;;;;;;5056581;28;19909;-62
2022/02/24 02:15:23;;;;;;;;;;;154.30;1484.80;;;;;;5056662;28;20392;-61
2022/02/24 02:17:49;;;;;;;;;;;154.20;1484.80;;;;;;5055950;28;20381;-61
2022/02/24 02:20:15;;;;;;;;;;;154.20;1484.80;;;;;;5055999;28;19956;-61
2022/02/24 02:22:42;;;;;;;;;;;154.20;1484.80;;;;;;5056035;28;19999;-61
2022/02/24 02:25:09;;;;;;;;;;;154.10;1484.80;;;;;;5056295;28;19919;-61
2022/02/24 02:27:36;;;;;;;;;;;154.20;1484.80;;;;;;5055916;28;19908;-61
2022/02/24 02:30:02;;;;;;;;;;;154.10;1510.40;;;;;;5056232;28;19962;-61
2022/02/24 02:32:28;;;;;;;;;;;154.20;1484.80;;;;;;5037814;28;19908;-61
2022/02/24 02:34:54;;;;;;;;;;;154.10;1484.80;;;;;;5056031;28;19912;-61
2022/02/24 02:37:19;;;;;;;;;;;154.10;1484.80;;;;;;5038001;28;20334;-60
2022/02/24 02:39:45;;;;;;;;;;;154.10;1484.80;;;;;;5055930;28;19982;-61
2022/02/24 02:42:11;;;;;;;;;;;154.10;1484.80;;;;;;5055803;28;19904;-61
2022/02/24 02:44:36;;;;;;;;;;;154.00;1484.80;;;;;;5055890;28;20258;-61
2022/02/24 02:47:02;;;;;;;;;;;154.00;1484.80;;;;;;5037510;28;20359;-61
2022/02/24 02:49:28;;;;;;;;;;;154.00;1484.80;;;;;;5055742;28;19905;-61
2022/02/24 02:51:53;;;;;;;;;;;154.00;1484.80;;;;;;5055706;28;19905;-61
2022/02/24 02:54:20;;;;;;;;;;;153.90;1484.80;;;;;;5037649;28;20389;-61
2022/02/24 02:56:46;;;;;;;;;;;153.90;1484.80;;;;;;5037499;28;20339;-61
2022/02/24 02:59:14;;;;;;;;;;;153.90;1484.80;;;;;;5055636;28;19911;-61
2022/02/24 03:01:39;;;;;;;;;;;153.90;1484.80;;;;;;5055248;28;19917;-61
2022/02/24 03:04:05;;;;;;;;;;;153.80;1484.80;;;;;;5054865;28;19918;-61
2022/02/24 03:06:30;;;;;;;;;;;153.90;1484.80;;;;;;5055198;28;19911;-61
2022/02/24 03:08:56;;;;;;;;;;;153.80;1484.80;;;;;;5055067;28;19952;-61
2022/02/24 03:11:22;;;;;;;;;;;153.80;1484.80;;;;;;5055547;28;19912;-61
2022/02/24 03:13:47;;;;;;;;;;;153.80;1484.80;;;;;;5055296;28;19951;-61
2022/02/24 03:16:13;;;;;;;;;;;153.80;1484.80;;;;;;5055069;28;20425;-61
2022/02/24 03:18:38;;;;;;;;;;;153.70;1484.80;;;;;;5055063;28;19927;-61
2022/02/24 03:21:04;;;;;;;;;;;153.80;1484.80;;;;;;5054799;28;19913;-60
2022/02/24 03:23:29;;;;;;;;;;;153.80;1484.80;;;;;;5054755;28;20005;-61
2022/02/24 03:25:55;;;;;;;;;;;153.70;1510.40;;;;;;5054258;28;19915;-61
2022/02/24 03:28:20;;;;;;;;;;;153.70;1484.80;;;;;;5054392;28;20342;-61
2022/02/24 03:30:46;;;;;;;;;;;153.80;1510.40;;;;;;5054976;28;19905;-61
2022/02/24 03:33:11;;;;;;;;;;;153.70;1484.80;;;;;;5054626;28;19905;-62
2022/02/24 03:35:37;;;;;;;;;;;153.70;1510.40;;;;;;5054855;28;19912;-63
2022/02/24 03:38:02;;;;;;;;;;;153.70;1484.80;;;;;;5036836;28;20322;-63
2022/02/24 03:40:28;;;;;;;;;;;153.70;1484.80;;;;;;5054810;28;19919;-62
2022/02/24 03:42:54;;;;;;;;;;;153.70;1510.40;;;;;;5054788;28;20359;-61
2022/02/24 03:45:19;;;;;;;;;;;153.70;1510.40;;;;;;5054770;28;19912;-61
2022/02/24 03:47:45;;;;;;;;;;;153.60;1510.40;;;;;;5054174;28;20385;-62
2022/02/24 03:50:13;;;;;;;;;;;153.70;1484.80;;;;;;5054482;28;19911;-61
2022/02/24 03:52:38;;;;;;;;;;;153.70;1484.80;;;;;;5054148;28;19904;-61
2022/02/24 03:55:04;;;;;;;;;;;153.70;1484.80;;;;;;5053680;28;19958;-62
2022/02/24 03:57:30;;;;;;;;;;;153.70;1510.40;;;;;;5053630;28;19911;-61
2022/02/24 03:59:55;;;;;;;;;;;153.70;1510.40;;;;;;5054374;28;19919;-61
2022/02/24 04:02:21;;;;;;;;;;;153.60;1484.80;;;;;;5054079;28;20351;-64
2022/02/24 04:04:46;;;;;;;;;;;153.70;1638.40;;;;;;5053812;28;19905;-63
2022/02/24 04:07:12;;;;;;;;;;;153.70;1587.20;;;;;;5054175;28;19962;-61
2022/02/24 04:09:38;;;;;;;;;;;153.60;1536.00;;;;;;5054297;28;19934;-61
2022/02/24 04:12:04;;;;;;;;;;;153.70;1536.00;;;;;;5054043;28;19904;-61
2022/02/24 04:14:30;;;;;;;;;;;153.70;1536.00;;;;;;5054123;28;19996;-62
2022/02/24 04:16:56;;;;;;;;;;;153.60;1536.00;;;;;;5054305;28;19909;-61
2022/02/24 04:19:22;;;;;;;;;;;153.70;1536.00;;;;;;5053231;28;19904;-61
2022/02/24 04:21:48;;;;;;;;;;;153.60;1510.40;;;;;;5053971;28;19913;-60
2022/02/24 04:24:14;;;;;;;;;;;153.60;1536.00;;;;;;5054168;28;19905;-61
2022/02/24 04:26:39;;;;;;;;;;;153.60;1510.40;;;;;;5053907;28;20251;-61
2022/02/24 04:29:05;;;;;;;;;;;153.60;1510.40;;;;;;5036093;28;19913;-61
2022/02/24 04:31:30;;;;;;;;;;;153.60;1510.40;;;;;;5054019;28;20440;-61
2022/02/24 04:33:56;;;;;;;;;;;153.60;1484.80;;;;;;5054169;28;19904;-61
2022/02/24 04:36:23;;;;;;;;;;;153.60;1484.80;;;;;;5054068;28;19905;-61
2022/02/24 04:38:48;;;;;;;;;;;128.90;1459.20;;;;;;5053775;28;19905;-62
2022/02/24 04:41:14;;;;;;;;;;;128.90;1484.80;;;;;;5053979;28;19920;-61
2022/02/24 04:43:40;;;;;;;;;;;128.90;1484.80;;;;;;5053672;28;19905;-61
2022/02/24 04:46:05;;;;;;;;;;;128.70;1484.80;;;;;;5053636;28;19983;-62
2022/02/24 04:48:31;;;;;;;;;;;128.80;1510.40;;;;;;5053937;28;20263;-62
2022/02/24 04:50:57;;;;;;;;;;;128.70;1459.20;;;;;;5053858;28;19909;-61
2022/02/24 04:53:22;;;;;;;;;;;128.60;1510.40;;;;;;5053966;28;19904;-61
2022/02/24 04:55:48;;;;;;;;;;;128.60;1484.80;;;;;;5053739;28;19951;-61
2022/02/24 04:58:13;;;;;;;;;;;128.40;1510.40;;;;;;5053490;28;19905;-61
2022/02/24 05:00:39;;;;;;;;;;;128.40;1510.40;;;;;;5053705;28;19913;-61
2022/02/24 05:03:05;;;;;;;;;;;128.40;1484.80;;;;;;5053704;28;19908;-60
2022/02/24 05:05:30;;;;;;;;;;;128.50;1510.40;;;;;;5035906;28;20320;-58
2022/02/24 05:07:56;;;;;;;;;;;128.40;1484.80;;;;;;5053637;28;19908;-59
2022/02/24 05:10:21;;;;;;;;;;;128.20;1536.00;;;;;;5053713;28;19905;-59
2022/02/24 05:12:48;;;;;;;;;;;128.30;1536.00;;;;;;5035650;28;19952;-59
2022/02/24 05:15:13;;;;;;;;;;;128.20;1484.80;;;;;;5053639;28;19913;-59
2022/02/24 05:17:40;;;;;;;;;;;128.30;1536.00;;;;;;5053384;28;19972;-59
2022/02/24 05:20:07;;;;;;;;;;;128.20;1510.40;;;;;;5035456;28;19913;-59
2022/02/24 05:22:33;;;;;;;;;;;128.20;1510.40;;;;;;5035726;28;20257;-59
2022/02/24 05:24:59;;;;;;;;;;;128.20;1510.40;;;;;;5053297;28;19905;-59
2022/02/24 05:27:24;;;;;;;;;;;128.00;1510.40;;;;;;5053451;28;19935;-59
2022/02/24 05:29:50;;;;;;;;;;;128.20;1536.00;;;;;;5053665;28;19904;-59
2022/02/24 05:32:16;;;;;;;;;;;128.10;1510.40;;;;;;5056972;28;20301;-59
2022/02/24 05:34:41;;;;;;;;;;;128.00;1536.00;;;;;;5039304;28;19999;-61
2022/02/24 05:37:07;;;;;;;;;;;128.10;1612.80;;;;;;5056850;28;20281;-62
2022/02/24 05:39:32;;;;;;;;;;;128.00;1536.00;;;;;;5056727;28;19944;-61
2022/02/24 05:41:59;;;;;;;;;;;103.30;1561.60;;;;;;5056690;28;19912;-62
2022/02/24 05:44:25;;;;;;;;;;;103.30;1484.80;;;;;;5055896;28;19905;-65
2022/02/24 05:46:51;;;;;;;;;;;103.20;1536.00;;;;;;5026483;28;20385;-63
2022/02/24 05:49:16;;;;;;;;;;;103.20;1510.40;;;;;;5046745;28;19905;-64
2022/02/24 05:51:42;;;;;;;;;;;103.10;1536.00;;;;;;5029388;28;19951;-65
2022/02/24 05:54:08;;;;;;;;;;;103.10;1561.60;;;;;;5047280;28;19908;-66
2022/02/24 05:56:34;;;;;;;;;;;103.10;1510.40;;;;;;5049013;28;19909;-65
2022/02/24 05:58:59;;;;;;;;;;;103.00;1561.60;;;;;;5056736;28;19904;-62
2022/02/24 06:01:25;;;;;;;;;;;103.10;1561.60;;;;;;5036648;28;20059;-62
2022/02/24 06:03:50;;;;;;;;;;;103.10;1561.60;;;;;;5036410;28;19909;-62
2022/02/24 06:06:16;;;;;;;;;;;103.10;1587.20;;;;;;5036420;28;19999;-63
2022/02/24 06:08:41;;;;;;;;;;;103.10;1561.60;;;;;;5036532;28;19912;-62
2022/02/24 06:11:08;;;;;;;;;;;103.00;1587.20;;;;;;5036156;28;19924;-62
2022/02/24 06:13:34;;;;;;;;;;;103.10;1561.60;;;;;;5018706;28;19905;-62
2022/02/24 06:15:59;;;;;;;;;;;103.10;1587.20;;;;;;5036516;28;19912;-63
2022/02/24 06:18:25;;;;;;;;;;;103.10;1612.80;;;;;;5036398;28;20390;-62
2022/02/24 06:20:51;;;;;;;;;;;103.20;1561.60;;;;;;5036176;28;19917;-63
2022/02/24 06:23:16;;;;;;;;;;;103.20;1587.20;;;;;;5018552;28;19905;-62
2022/02/24 06:25:42;;;;;;;;;;;103.30;1561.60;;;;;;5035556;28;19967;-66
2022/02/24 06:28:07;;;;;;;;;;;103.30;1561.60;;;;;;5028929;28;19912;-64
2022/02/24 06:30:33;;;;;;;;;;;103.30;1612.80;;;;;;5035809;28;20358;-62
2022/02/24 06:32:58;;;;;;;;;;;128.00;1587.20;;;;;;5035441;28;19951;-63
2022/02/24 06:35:24;;;;;;;;;;;128.00;1638.40;;;;;;5035683;28;20359;-62
2022/02/24 06:37:50;;;;;;;;;;;128.10;1612.80;;;;;;5036218;28;19905;-63
2022/02/24 06:40:15;;;;;;;;;;;128.20;1612.80;;;;;;5035629;28;20347;-64
2022/02/24 06:42:41;;;;;;;;;;;128.30;1638.40;;;;;;5034608;28;19972;-63
2022/02/24 06:45:07;;;;;;;;;;;128.40;1587.20;;;;;;5036083;28;19905;-62
2022/02/24 06:47:32;;;;;;;;;;;128.40;1612.80;;;;;;5034891;28;20007;-63
2022/02/24 06:49:58;;;;;;;;;;;128.50;1561.60;;;;;;5035699;28;19905;-62
2022/02/24 06:52:24;;;;;;;;;;;128.60;1587.20;;;;;;5035616;28;19905;-62
2022/02/24 06:54:49;;;;;;;;;;;128.70;1612.80;;;;;;5035637;28;19912;-63
2022/02/24 06:57:15;;;;;;;;;;;128.70;1587.20;;;;;;5035293;28;19909;-63
2022/02/24 06:59:41;;;;;;;;;;;128.80;1612.80;;;;;;5035158;28;19995;-63
2022/02/24 07:02:07;;;;;;;;;;;128.90;1561.60;;;;;;5035627;28;20377;-63
2022/02/24 07:04:32;;;;;;;;;;;128.80;1587.20;;;;;;5035193;28;19951;-62
2022/02/24 07:06:58;;;;;;;;;;;128.90;1612.80;;;;;;5035372;28;19936;-62
2022/02/24 07:09:28;;;;;;;;;;;128.90;1587.20;;;;;;5035361;28;19905;-63
2022/02/24 07:11:53;;;;;;;;;;;153.60;1612.80;;;;;;5034855;28;20347;-63
2022/02/24 07:14:20;;;;;;;;;;;153.60;1587.20;;;;;;5035038;28;19909;-63
2022/02/24 07:16:45;;;;;;;;;;;153.70;1612.80;;;;;;5034581;28;19960;-63
2022/02/24 07:19:11;;;;;;;;;;;153.80;1587.20;;;;;;5035366;28;20310;-63
2022/02/24 07:21:37;;;;;;;;;;;153.80;1612.80;;;;;;5035323;28;19913;-63
2022/02/24 07:24:02;;;;;;;;;;;153.90;1612.80;;;;;;5035401;28;19912;-63
2022/02/24 07:26:28;;;;;;;;;;;154.00;1587.20;;;;;;5016915;28;19953;-63
2022/02/24 07:28:54;;;;;;;;;;;154.10;1587.20;;;;;;5034933;28;19987;-63
2022/02/24 07:31:21;;;;;;;;;;;154.20;1587.20;;;;;;5035212;28;19999;-63
2022/02/24 07:33:47;;;;;;;;;;;154.20;1587.20;;;;;;5034877;28;19905;-63
2022/02/24 07:36:13;;;;;;;;;;;154.30;1612.80;;;;;;5035084;28;19928;-63
2022/02/24 07:38:39;;;;;;;;;;;154.40;1587.20;;;;;;5034919;28;20355;-63
2022/02/24 07:41:04;;;;;;;;;;;154.50;1587.20;;;;;;5034613;28;20354;-69
2022/02/24 07:43:31;;;;;;;;;;;154.50;1587.20;;;;;;5034865;28;20004;-69
2022/02/24 07:45:56;;;;;;;;;;;179.20;1612.80;;;;;;5034643;28;19909;-66
2022/02/24 07:48:22;;;;;;;;;;;179.20;1612.80;;;;;;5034663;28;20290;-66
2022/02/24 07:50:47;;;;;;;;;;;179.30;1664.00;;;;;;5034685;28;19948;-64
2022/02/24 07:53:13;;;;;;;;;;;179.40;1664.00;;;;;;5034429;28;19905;-64
2022/02/24 07:55:39;;;;;;;;;;;179.50;1740.80;;;;;;5034560;28;20282;-65
2022/02/24 07:58:05;;;;;;;;;;;179.60;1664.00;;;;;;5034570;28;19916;-63
2022/02/24 08:00:30;;;;;;;;;;;179.70;1638.40;;;;;;5034605;28;19913;-65
2022/02/24 08:02:56;;;;;;;;;;;179.80;1638.40;;;;;;5033536;28;19905;-66
2022/02/24 08:05:21;;;;;;;;;;;179.90;1612.80;;;;;;5033801;28;19905;-64
2022/02/24 08:07:47;;;;;;;;;;;180.00;1612.80;;;;;;5034627;28;19905;-67
2022/02/24 08:10:13;;;;;;;;;;;180.10;1638.40;;;;;;5034513;28;19905;-61
2022/02/24 08:12:44;;;;;;;;;;;204.90;1612.80;;;;;;5016781;28;20258;-61
2022/02/24 08:15:10;;;;;;;;;;;205.00;1612.80;;;;;;5034212;28;20011;-61
2022/02/24 08:17:35;;;;;;;;;;;205.20;1612.80;;;;;;5034142;28;19941;-61
2022/02/24 08:20:05;;;;;;;;;;;205.30;1561.60;;;;;;5033978;28;20363;-61
2022/02/24 08:22:32;;;;;;;;;;;205.30;1587.20;;;;;;5034289;28;19944;-61
2022/02/24 08:24:57;;;;;;;;;;;205.30;1587.20;;;;;;5034164;28;20012;-60
2022/02/24 08:27:23;;;;;;;;;;;205.40;1612.80;;;;;;5034157;28;19952;-61
2022/02/24 08:29:48;;;;;;;;;;;205.50;1638.40;;;;;;5034184;28;19905;-62
2022/02/24 08:32:14;;;;;;;;;;;205.60;1587.20;;;;;;5034139;28;19912;-62
2022/02/24 08:34:39;;;;;;;;;;;230.40;1612.80;;;;;;5034124;28;19927;-62
2022/02/24 08:37:05;;;;;;;;;;;230.50;1587.20;;;;;;5033965;28;19909;-62
2022/02/24 08:39:31;;;;;;;;;;;230.60;1612.80;;;;;;5034023;28;19909;-61
2022/02/24 08:41:56;;;;;;;;;;;230.70;1612.80;;;;;;5016430;28;19963;-62
2022/02/24 08:44:22;;;;;;;;;;;230.70;1561.60;;;;;;5034034;28;19912;-62
2022/02/24 08:46:47;;;;;;;;;;;230.90;1587.20;;;;;;5033288;28;20216;-61
2022/02/24 08:49:13;;;;;;;;;;;230.90;1587.20;;;;;;5033943;28;19927;-62
2022/02/24 08:51:39;;;;;;;;;;;231.00;1587.20;;;;;;5033850;28;19905;-61
2022/02/24 08:54:04;;;;;;;;;;;231.10;1561.60;;;;;;5016288;28;19952;-62
2022/02/24 08:56:30;;;;;;;;;;;231.20;1561.60;;;;;;5033907;28;19905;-61
2022/02/24 08:58:56;;;;;;;;;;;256.00;1510.40;;;;;;5033838;28;19905;-61
2022/02/24 09:01:22;;;;;;;;;;;256.00;1536.00;;;;;;5015449;28;19920;-62
2022/02/24 09:03:47;;;;;;;;;;;256.10;1536.00;;;;;;5033716;28;19905;-62
2022/02/24 09:06:13;;;;;;;;;;;256.30;1536.00;;;;;;5036038;28;20320;-61
2022/02/24 09:08:38;;;;;;;;;;;256.40;1536.00;;;;;;5037844;28;20327;-61
2022/02/24 09:11:04;;;;;;;;;;;256.60;1536.00;;;;;;5020381;28;19959;-63
2022/02/24 09:13:29;;;;;;;;;;;256.70;1510.40;;;;;;5037325;28;19912;-61
2022/02/24 09:15:55;;;;;;;;;;;256.70;1484.80;;;;;;5037384;28;19962;-62
2022/02/24 09:18:21;;;;;;;;;;;256.90;1459.20;;;;;;5037658;28;19905;-62
2022/02/24 09:20:46;;;;;;;;;;;281.60;1484.80;;;;;;5019733;28;20366;-62
2022/02/24 09:23:12;;;;;;;;;;;281.80;1459.20;;;;;;5037521;28;19912;-61
2022/02/24 09:25:38;;;;;;;;;;;281.90;1459.20;;;;;;5037086;28;19905;-62
2022/02/24 09:28:04;;;;;;;;;;;282.10;1433.60;;;;;;5037463;28;19911;-62
2022/02/24 09:30:29;;;;;;;;;;;282.20;1408.00;;;;;;5037356;28;20321;-62
2022/02/24 09:32:55;;;;;;;;;;;282.30;1408.00;;;;;;5037068;28;20333;-62
2022/02/24 09:35:21;;;;;;;;;;;282.50;1356.80;;;;;;5037377;28;19905;-62
2022/02/24 09:37:47;;;;;;;;;;;307.20;1408.00;;;;;;5037257;28;19989;-62
2022/02/24 09:40:14;;;;;;;;;;;307.30;1382.40;;;;;;5037012;28;20000;-62
2022/02/24 09:42:41;;;;;;;;;;;307.30;1382.40;;;;;;5036905;28;19992;-62
2022/02/24 09:45:08;;;;;;;;;;;307.40;1408.00;;;;;;5037099;28;19905;-62
2022/02/24 09:47:37;;;;;;;;;;;307.50;1382.40;;;;;;5036588;28;19917;-63
2022/02/24 09:50:03;;;;;;;;;;;307.70;1382.40;;;;;;5036843;28;19996;-62
2022/02/24 09:52:29;;;;;;;;;;;307.70;1382.40;;;;;;5036313;28;19905;-63
2022/02/24 09:54:54;;;;;;;;;;;307.90;1356.80;;;;;;5037078;28;20385;-62
2022/02/24 09:57:20;;;;;;;;;;;307.90;1356.80;;;;;;5036943;28;19912;-62
2022/02/24 09:59:46;;;;;;;;;;;308.10;1331.20;;;;;;5036616;28;20428;-63
2022/02/24 10:02:13;;;;;;;;;;;308.10;1356.80;;;;;;5036606;28;19905;-63
2022/02/24 10:04:59;;;;;;;;;;;332.90;1408.00;;;;;;5036578;28;19905;-61
2022/02/24 10:07:25;;;;;;;;;;;333.00;1356.80;;;;;;4956056;29;19906;-62
2022/02/24 10:09:50;;;;;;;;;;;333.10;1356.80;;;;;;4956337;29;19913;-62
2022/02/24 10:12:16;;;;;;;;;;;333.20;1305.60;;;;;;4956198;29;19906;-61
2022/02/24 10:14:42;;;;;;;;;;;333.20;1305.60;;;;;;4956504;29;19997;-61
2022/02/24 10:17:08;;;;;;;;;;;333.30;1280.00;;;;;;4956166;28;20029;-61
2022/02/24 10:19:41;;;;;;;;;;;333.30;1254.40;;;;;;4956371;29;19996;-61
2022/02/24 10:22:19;;;;;;;;;;;333.40;1228.80;;;;;;4939215;29;19918;-62
2022/02/24 10:24:54;;;;;;;;;;;333.40;1254.40;;;;;;4956168;29;20009;-61
2022/02/24 10:27:21;;;;;;;;;;;333.40;1254.40;;;;;;4955872;29;20378;-62
2022/02/24 10:29:59;;;;;;;;;;;333.50;1254.40;;;;;;4955882;29;19906;-61
2022/02/24 10:32:33;;;;;;;;;;;333.60;1254.40;;;;;;4955816;29;20013;-62
2022/02/24 10:35:16;;;;;;;;;;;333.60;1228.80;;;;;;4956101;29;20392;-62
2022/02/24 10:37:42;;;;;;;;;;;333.60;1228.80;;;;;;4955969;28;19906;-62
2022/02/24 10:40:08;;;;;;;;;;;333.70;1228.80;;;;;;4955694;29;20322;-63
2022/02/24 10:42:33;;;;;;;;;;;358.40;1203.20;;;;;;4954171;29;19953;-62
2022/02/24 10:45:05;;;;;;;;;;;358.40;1203.20;;;;;;5010800;28;20347;-61
2022/02/24 10:47:31;;;;;;;;;;;358.40;1177.60;;;;;;5042009;28;19917;-63
2022/02/24 10:49:56;;;;;;;;;;;358.40;1177.60;;;;;;5040002;28;19966;-62
2022/02/24 10:52:22;;;;;;;;;;;358.40;1177.60;;;;;;5035221;28;19905;-61
2022/02/24 10:55:07;;;;;;;;;;;358.50;1152.00;;;;;;5035859;28;20428;-62
2022/02/24 10:57:33;;;;;;;;;;;358.50;1126.40;;;;;;5035796;28;19905;-61
2022/02/24 10:59:59;;;;;;;;;;;358.50;1126.40;;;;;;5040752;28;19916;-62
2022/02/24 11:02:25;;;;;;;;;;;358.60;1126.40;;;;;;5035674;28;19940;-62
2022/02/24 11:04:54;;;;;;;;;;;358.60;1126.40;;;;;;5035447;28;19905;-62
2022/02/24 11:07:21;;;;;;;;;;;358.80;1126.40;;;;;;5017685;28;19908;-61
2022/02/24 11:09:48;;;;;;;;;;;358.80;1152.00;;;;;;5041118;28;19986;-61
2022/02/24 11:12:14;;;;;;;;;;;358.70;1075.20;;;;;;5045369;28;19905;-68
2022/02/24 11:14:40;;;;;;;;;;;358.70;1049.60;;;;;;5045136;28;19905;-62
2022/02/24 11:17:10;;;;;;;;;;;358.70;1049.60;;;;;;5043473;28;20418;-62
2022/02/24 11:19:36;;;;;;;;;;;358.70;1049.60;;;;;;5046209;28;19909;-63
2022/02/24 11:22:03;;;;;;;;;;;358.80;1075.20;;;;;;5046448;28;20049;-64
2022/02/24 11:24:28;;;;;;;;;;;358.80;998.40;;;;;;5045617;28;19905;-64
2022/02/24 11:27:06;;;;;;;;;;;358.70;998.40;;;;;;5043387;28;19905;-62
2022/02/24 11:29:34;;;;;;;;;;;358.80;998.40;;;;;;5038291;28;19905;-62
2022/02/24 11:32:05;;;;;;;;;;;358.90;998.40;;;;;;5035151;28;19905;-62
2022/02/24 11:34:49;;;;;;;;;;;358.90;998.40;;;;;;5034918;28;20339;-62
2022/02/24 11:37:19;;;;;;;;;;;358.90;998.40;;;;;;5035085;28;20274;-61
2022/02/24 11:39:46;;;;;;;;;;;358.90;972.80;;;;;;5035051;28;19951;-61
2022/02/24 11:42:21;;;;;;;;;;;358.90;947.20;;;;;;5034598;28;19913;-62
2022/02/24 11:44:47;;;;;;;;;;;358.90;947.20;;;;;;5039743;28;19909;-65
2022/02/24 11:47:13;;;;;;;;;;;358.90;947.20;;;;;;5037563;28;19924;-62
2022/02/24 11:49:54;;;;;;;;;;;359.00;972.80;;;;;;5015267;28;19920;-61
2022/02/24 11:52:23;;;;;;;;;;;359.00;947.20;;;;;;5032680;28;19970;-62
2022/02/24 11:54:49;;;;;;;;;;;359.00;947.20;;;;;;5030901;28;19909;-61
2022/02/24 11:57:24;;;;;;;;;;;359.00;921.60;;;;;;5033125;28;20363;-61
2022/02/24 11:59:53;;;;;;;;;;;359.00;921.60;;;;;;5033065;28;19951;-61
2022/02/24 12:02:18;;;;;;;;;;;358.90;947.20;;;;;;5015221;28;19905;-61
2022/02/24 12:04:48;;;;;;;;;;;358.90;947.20;;;;;;5034549;28;19916;-61
2022/02/24 12:07:18;;;;;;;;;;;359.00;972.80;;;;;;5034459;28;19992;-61
2022/02/24 12:09:44;;;;;;;;;;;359.10;921.60;;;;;;5034824;28;19924;-62
2022/02/24 12:12:25;;;;;;;;;;;359.10;921.60;;;;;;5033933;28;19905;-61
2022/02/24 12:14:51;;;;;;;;;;;359.10;947.20;;;;;;5034273;28;19909;-62
2022/02/24 12:17:19;;;;;;;;;;;359.10;947.20;;;;;;5033975;28;20385;-61
2022/02/24 12:19:53;;;;;;;;;;;359.00;896.00;;;;;;5034291;28;19913;-61
2022/02/24 12:22:19;;;;;;;;;;;358.90;896.00;;;;;;5033165;28;19912;-61
2022/02/24 12:24:49;;;;;;;;;;;359.00;896.00;;;;;;5034228;28;19909;-61
2022/02/24 12:27:28;;;;;;;;;;;359.10;921.60;;;;;;5034085;28;20007;-61
2022/02/24 12:29:55;;;;;;;;;;;359.00;921.60;;;;;;5034447;28;20294;-62
2022/02/24 12:32:20;;;;;;;;;;;359.10;921.60;;;;;;5034069;28;19986;-61
2022/02/24 12:34:46;;;;;;;;;;;359.10;921.60;;;;;;5033850;28;19976;-62
2022/02/24 12:37:13;;;;;;;;;;;359.10;896.00;;;;;;5034153;28;19905;-61
2022/02/24 12:39:40;;;;;;;;;;;359.10;921.60;;;;;;5032440;28;19995;-61
2022/02/24 12:42:09;;;;;;;;;;;359.10;921.60;;;;;;5033755;28;20040;-62
2022/02/24 12:44:35;;;;;;;;;;;359.00;921.60;;;;;;5033870;28;20023;-61
2022/02/24 12:47:01;;;;;;;;;;;359.00;896.00;;;;;;5033694;28;19996;-61
2022/02/24 12:49:27;;;;;;;;;;;359.00;896.00;;;;;;5033544;28;19927;-61
2022/02/24 12:51:56;;;;;;;;;;;359.00;921.60;;;;;;5034065;28;20339;-61
2022/02/24 12:54:22;;;;;;;;;;;359.10;896.00;;;;;;5032405;28;19937;-62
2022/02/24 12:56:48;;;;;;;;;;;359.10;896.00;;;;;;5032803;28;19951;-61
2022/02/24 12:59:15;;;;;;;;;;;359.10;896.00;;;;;;5033670;28;19912;-62
2022/02/24 13:01:41;;;;;;;;;;;359.10;896.00;;;;;;5033712;28;19935;-61
2022/02/24 13:04:14;;;;;;;;;;;359.10;896.00;;;;;;5033450;28;19905;-62
2022/02/24 13:06:40;;;;;;;;;;;359.10;896.00;;;;;;5033566;28;19905;-61
2022/02/24 13:12:01;;;;;;;;;;;359.10;921.60;;;;;;5034051;28;19911;-64
2022/02/24 13:14:27;;;;;;;;;;;359.10;1024.00;;;;;;5033374;28;19909;-63
2022/02/24 13:16:58;;;;;;;;;;;384.10;1408.00;;;;;;5033681;28;19988;-62
2022/02/24 13:19:26;;;;;;;;;;;384.10;1049.60;;;;;;5033495;28;19912;-62
2022/02/24 13:21:56;;;;;;;;;;;384.20;947.20;;;;;;5015771;28;19920;-62
2022/02/24 13:24:23;;;;;;;;;;;384.10;896.00;;;;;;5033349;28;19964;-64
2022/02/24 13:26:49;;;;;;;;;;;384.10;870.40;;;;;;5030556;28;19905;-63
2022/02/24 13:29:16;;;;;;;;;;;384.00;896.00;;;;;;5033327;28;20315;-62
2022/02/24 13:31:41;;;;;;;;;;;384.00;870.40;;;;;;5033876;28;19912;-62
2022/02/24 13:34:14;;;;;;;;;;;384.00;896.00;;;;;;5033283;28;19905;-62
2022/02/24 13:36:39;;;;;;;;;;;384.00;870.40;;;;;;5033460;28;19911;-62
2022/02/24 13:39:05;;;;;;;;;;;384.00;870.40;;;;;;5033989;28;19909;-62
2022/02/24 13:41:30;;;;;;;;;;;384.00;870.40;;;;;;5033476;28;19913;-62